Homer City, Pennsylvania
Current Conditions -  °F | °C
As of 9:15 AM on Thursday 29 Jan 2015 (Local Time) from KIDI Reporting Station
Overcast Overcast  
Wind Chill: 20°   Ceiling: 7500
Heat Index: 30°   Visibility: 10mi
Dew Point:   Wind: 13mph
Humidity: 37%   Direction: 180°S
Pressure: 30.06"   Gusts: 18mph
Location:  40.54°N, 79.16°W
Report Text: KIDI 291415Z AUTO 18011G16KT 10SM BKN075 OVC085 M01/M14 A3006 RMK A01
Loading
Personal Weather Stations






























Interactive Weather Map New forecast layout! Learn more

10-Day Weather Forecast

Advertisements
Track Severe Weather on mobile